createdAt,value
2023-04-13T05:01:26.815Z,96602.91
2023-04-13T05:06:40.972Z,96605.38
2023-04-13T05:11:44.901Z,96639.56
2023-04-13T05:16:51.103Z,96631.56
2023-04-13T05:22:15.507Z,96644.88
2023-04-13T05:27:25.192Z,96652.25
2023-04-13T05:32:29.348Z,96667.81
2023-04-13T05:37:34.213Z,96668.41
2023-04-13T05:42:36.938Z,96671.66
2023-04-13T05:47:40.113Z,96682.72
2023-04-13T05:52:47.149Z,96683.97
2023-04-13T05:57:48.772Z,96699.28
2023-04-13T06:02:51.696Z,96714.88
2023-04-13T06:07:53.960Z,96713.41
2023-04-13T06:12:55.668Z,96711.38
2023-04-13T06:17:57.237Z,96702.59
2023-04-13T06:22:58.938Z,96701.56
2023-04-13T06:28:02.537Z,96701.94
2023-04-13T06:33:06.230Z,96718.31
2023-04-13T06:38:10.153Z,96686.97
2023-04-13T06:43:29.483Z,96691.28
2023-04-13T06:48:50.556Z,96695.41
2023-04-13T06:53:56.044Z,96706.06
2023-04-13T06:59:02.646Z,96704.25
2023-04-13T07:04:07.658Z,96703.47
2023-04-13T07:09:10.083Z,96706.59
2023-04-13T07:14:11.931Z,96714.00
2023-04-13T07:19:14.073Z,96726.13
2023-04-13T07:24:15.925Z,96733.91
2023-04-13T07:29:19.388Z,96724.47
2023-04-13T07:34:27.329Z,96739.00
2023-04-13T07:39:29.200Z,96744.31
2023-04-13T07:44:31.106Z,96758.72
2023-04-13T07:49:32.767Z,96758.13
2023-04-13T07:54:36.348Z,96765.06
2023-04-13T07:59:40.926Z,96767.28
2023-04-13T08:04:44.583Z,96764.00
2023-04-13T08:09:50.038Z,96771.16
2023-04-13T08:14:51.686Z,96766.59
2023-04-13T08:19:54.320Z,96768.09
2023-04-13T08:24:56.500Z,96788.81
2023-04-13T08:30:01.837Z,96799.69
2023-04-13T08:35:11.590Z,96797.59
2023-04-13T08:40:14.017Z,96797.75
2023-04-13T08:45:18.508Z,96793.00
2023-04-13T08:50:22.715Z,96790.50
2023-04-13T08:55:29.362Z,96792.53
2023-04-13T09:00:35.810Z,96800.28
2023-04-13T09:05:42.093Z,96797.34
2023-04-13T09:10:44.809Z,96800.78
2023-04-13T09:15:50.820Z,96805.28
2023-04-13T09:20:59.939Z,96803.31
2023-04-13T09:26:06.381Z,96818.06
2023-04-13T09:31:08.673Z,96815.16
2023-04-13T09:36:11.592Z,96818.25
2023-04-13T09:41:13.131Z,96822.22
2023-04-13T09:46:14.850Z,96821.66
2023-04-13T09:51:16.931Z,96840.13
2023-04-13T09:56:20.353Z,96840.41
2023-04-13T10:01:23.119Z,96832.63
2023-04-13T10:06:24.771Z,96829.09
2023-04-13T10:11:26.296Z,96833.50
2023-04-13T10:16:28.113Z,96842.22
2023-04-13T10:21:36.187Z,96842.72
2023-04-13T10:26:38.725Z,96847.22
2023-04-13T10:31:40.225Z,96855.72
2023-04-13T10:36:43.408Z,96848.34
2023-04-13T10:41:44.985Z,96854.13
2023-04-13T10:46:50.599Z,96846.00
2023-04-13T10:51:52.176Z,96843.09
2023-04-13T10:57:01.636Z,96836.41
2023-04-13T11:02:10.877Z,96845.97
2023-04-13T11:07:18.153Z,96834.19
2023-04-13T11:12:19.960Z,96841.06
2023-04-13T11:17:21.688Z,96841.03
2023-04-13T11:22:25.496Z,96842.25
2023-04-13T11:27:27.141Z,96853.69
2023-04-13T11:32:28.645Z,96848.94
2023-04-13T11:37:34.573Z,96861.75
2023-04-13T11:42:41.293Z,96851.59
2023-04-13T11:47:43.795Z,96851.50
2023-04-13T11:52:48.895Z,96836.97
2023-04-13T11:57:53.803Z,96836.97
2023-04-13T12:03:02.438Z,96848.50
2023-04-13T12:08:05.282Z,96848.59
2023-04-13T12:23:25.113Z,96830.59
2023-04-13T12:28:37.430Z,96827.09
2023-04-13T12:33:39.851Z,96833.03
2023-04-13T12:38:41.479Z,96834.28
2023-04-13T12:43:42.925Z,96833.78
2023-04-13T12:48:44.414Z,96840.28
2023-04-13T12:53:46.127Z,96842.66
2023-04-13T12:58:48.523Z,96856.53
2023-04-13T13:03:50.322Z,96872.09
2023-04-13T13:08:51.831Z,96865.78
2023-04-13T13:13:53.256Z,96854.06
2023-04-13T13:18:54.712Z,96843.00
2023-04-13T13:23:56.159Z,96858.75
2023-04-13T13:28:57.864Z,96867.41
2023-04-13T13:33:59.709Z,96846.00
2023-04-13T13:39:01.323Z,96840.38
2023-04-13T13:44:03.106Z,96850.19
2023-04-13T13:49:04.868Z,96853.31
2023-04-13T13:54:26.732Z,96858.03
2023-04-13T13:59:28.165Z,96857.78
2023-04-13T14:04:29.608Z,96856.50
2023-04-13T14:09:31.101Z,96858.16
2023-04-13T14:14:32.532Z,96850.66
2023-04-13T14:19:34.540Z,96844.44
2023-04-13T14:24:36.140Z,96850.50
2023-04-13T14:29:37.610Z,96856.59
2023-04-13T14:34:39.054Z,96841.88
2023-04-13T14:39:40.877Z,96850.09
2023-04-13T14:44:42.970Z,96846.31
2023-04-13T14:49:44.868Z,96850.94
2023-04-13T14:54:46.547Z,96860.31
2023-04-13T15:04:53.152Z,96881.28
2023-04-13T15:09:55.253Z,96873.38
2023-04-13T15:14:56.669Z,96885.25
2023-04-13T15:19:58.264Z,96887.06
2023-04-13T15:25:00.240Z,96882.47
2023-04-13T15:30:03.289Z,96888.09
2023-04-13T15:35:05.669Z,96888.69
2023-04-13T15:40:07.974Z,96888.00
2023-04-13T15:45:09.958Z,96902.13
2023-04-13T15:50:11.700Z,96908.22
2023-04-13T15:55:13.226Z,96908.78
2023-04-13T16:00:15.322Z,96906.03
2023-04-13T16:05:18.185Z,96905.25
2023-04-13T16:10:19.941Z,96914.56
2023-04-13T16:15:22.776Z,96913.09
2023-04-13T16:20:28.236Z,96914.88
2023-04-13T16:25:30.649Z,96919.81
2023-04-13T16:30:32.849Z,96913.63
2023-04-13T16:35:34.301Z,96909.00
2023-04-13T16:40:36.291Z,96911.75
2023-04-13T16:45:37.825Z,96910.66
2023-04-13T16:50:39.386Z,96909.16
2023-04-13T16:55:40.885Z,96912.50
2023-04-13T17:00:42.535Z,96914.72
2023-04-13T17:05:43.957Z,96915.81
2023-04-13T17:10:46.132Z,96921.44
2023-04-13T17:15:47.719Z,96918.13
2023-04-13T17:20:56.270Z,96908.47
2023-04-13T17:25:57.776Z,96900.25
2023-04-13T17:30:59.219Z,96901.06
2023-04-13T17:36:00.981Z,96896.75
2023-04-13T17:41:02.480Z,96895.38
2023-04-13T17:46:04.262Z,96893.00
2023-04-13T17:51:11.416Z,96889.41
2023-04-13T17:56:17.569Z,96901.63
2023-04-13T18:01:19.117Z,96936.28
2023-04-13T18:06:20.732Z,96975.38
2023-04-13T18:11:22.165Z,97031.75
2023-04-13T18:16:25.288Z,97049.44
2023-04-13T18:21:27.528Z,97060.50
2023-04-13T18:26:29.082Z,97064.19
2023-04-13T18:31:30.904Z,97075.69
2023-04-13T18:36:33.426Z,97091.69
2023-04-13T18:41:34.980Z,97089.66
2023-04-13T18:46:36.454Z,97087.56
2023-04-13T18:51:38.702Z,97076.06
2023-04-13T18:56:40.624Z,97071.31
2023-04-13T19:01:42.101Z,97060.84
2023-04-13T19:06:43.635Z,97059.59
2023-04-13T19:11:47.481Z,97057.94
2023-04-13T19:16:52.279Z,97050.56
2023-04-13T19:21:57.169Z,97054.25
2023-04-13T19:26:58.782Z,97050.97
2023-04-13T19:32:00.302Z,97049.72
2023-04-13T19:37:01.903Z,97048.88
2023-04-13T19:42:03.501Z,97059.94
2023-04-13T19:47:04.986Z,97051.69
2023-04-13T19:52:06.441Z,97044.50
2023-04-13T19:57:08.162Z,97031.19
2023-04-13T20:02:09.834Z,97029.53
2023-04-13T20:07:11.357Z,97036.31
2023-04-13T20:12:12.936Z,97028.06
2023-04-13T20:17:16.118Z,97041.59
2023-04-13T20:22:18.212Z,97037.84
2023-04-13T20:27:23.572Z,97048.81
2023-04-13T20:32:25.221Z,97054.66
2023-04-13T20:37:26.731Z,97049.63
2023-04-13T20:42:30.486Z,97035.19
2023-04-13T20:47:32.023Z,97025.28
2023-04-13T20:52:33.654Z,97017.06
2023-04-13T20:57:35.137Z,96994.97
2023-04-13T21:02:36.768Z,96994.56
2023-04-13T21:07:40.261Z,97005.13
2023-04-13T21:12:41.690Z,97007.13
2023-04-13T21:17:43.205Z,97012.16
2023-04-13T21:22:44.667Z,97014.44
2023-04-13T21:27:46.164Z,97026.34
2023-04-13T21:32:47.702Z,97016.28
2023-04-13T21:37:49.388Z,97021.47
2023-04-13T21:42:50.851Z,97038.34
2023-04-13T21:47:53.751Z,97037.19
2023-04-13T21:52:55.940Z,97035.28
2023-04-13T21:57:57.439Z,97029.53
